Time,TemperatureF,DewpointF,PressureIn,WindDirection,WindDirectionDegrees,WindSpeedMPH,WindSpeedGustMPH,Humidity,HourlyPrecipIn,Conditions,Clouds,dailyrainin,SoftwareType,DateUTC
2013-02-04 00:05:00,22.9,18.0,30.09,NNW,345,1.0,3.0,81,0.00,,,0.00,weatherlink.com 1.10,2013-02-04 06:05:00,
2013-02-04 00:20:00,22.0,16.0,30.08,NNW,345,1.0,3.0,79,0.00,,,0.00,weatherlink.com 1.10,2013-02-04 06:20:00,
2013-02-04 00:35:00,21.8,17.0,30.07,NNW,345,1.0,2.0,81,0.00,,,0.00,weatherlink.com 1.10,2013-02-04 06:35:00,
2013-02-04 00:50:00,22.0,17.0,30.07,NNW,345,1.0,2.0,80,0.00,,,0.00,weatherlink.com 1.10,2013-02-04 06:50:00,
2013-02-04 01:05:00,23.1,18.0,30.06,NNW,345,3.0,3.0,82,0.00,,,0.00,weatherlink.com 1.10,2013-02-04 07:05:00,
2013-02-04 01:20:00,25.4,19.0,30.06,NNW,345,1.0,3.0,77,0.00,,,0.00,weatherlink.com 1.10,2013-02-04 07:20:00,
2013-02-04 01:35:00,25.8,19.0,30.06,NNW,345,2.0,3.0,76,0.00,,,0.00,weatherlink.com 1.10,2013-02-04 07:35:00,
2013-02-04 01:50:00,25.9,20.0,30.05,NNW,345,2.0,3.0,77,0.00,,,0.00,weatherlink.com 1.10,2013-02-04 07:50:00,
2013-02-04 02:05:00,26.4,20.0,30.05,NNE,30,3.0,4.0,77,0.00,,,0.00,weatherlink.com 1.10,2013-02-04 08:05:00,
2013-02-04 02:20:00,26.5,21.0,30.04,East,85,2.0,6.0,78,0.00,,,0.00,weatherlink.com 1.10,2013-02-04 08:20:00,
2013-02-04 02:36:00,27.0,21.0,30.04,SE,134,4.0,6.0,79,0.00,,,0.00,weatherlink.com 1.10,2013-02-04 08:36:00,
2013-02-04 02:51:00,27.4,22.0,30.03,SE,143,6.0,7.0,79,0.00,,,0.00,weatherlink.com 1.10,2013-02-04 08:51:00,
2013-02-04 03:06:00,27.3,22.0,30.02,SE,144,5.0,7.0,79,0.00,,,0.00,weatherlink.com 1.10,2013-02-04 09:06:00,
2013-02-04 03:21:00,27.2,22.0,30.02,SE,141,4.0,5.0,80,0.00,,,0.00,weatherlink.com 1.10,2013-02-04 09:21:00,
2013-02-04 03:36:00,27.4,22.0,30.01,SE,141,2.0,4.0,81,0.00,,,0.00,weatherlink.com 1.10,2013-02-04 09:36:00,
2013-02-04 03:51:00,27.6,23.0,30.00,SE,141,1.0,4.0,82,0.00,,,0.00,weatherlink.com 1.10,2013-02-04 09:51:00,
2013-02-04 04:06:00,27.8,23.0,29.99,SE,141,2.0,4.0,82,0.00,,,0.00,weatherlink.com 1.10,2013-02-04 10:06:00,
2013-02-04 04:21:00,27.9,23.0,29.99,SE,141,2.0,4.0,83,0.00,,,0.00,weatherlink.com 1.10,2013-02-04 10:21:00,
2013-02-04 04:36:00,28.1,24.0,29.98,SE,141,2.0,4.0,84,0.00,,,0.00,weatherlink.com 1.10,2013-02-04 10:36:00,
2013-02-04 04:51:00,28.3,24.0,29.98,SE,141,0.0,2.0,84,0.00,,,0.00,weatherlink.com 1.10,2013-02-04 10:51:00,
2013-02-04 05:06:00,27.7,24.0,29.97,SE,141,2.0,2.0,85,0.00,,,0.00,weatherlink.com 1.10,2013-02-04 11:06:00,
2013-02-04 05:21:00,28.2,25.0,29.96,SE,141,2.0,4.0,86,0.00,,,0.00,weatherlink.com 1.10,2013-02-04 11:21:00,
2013-02-04 05:36:00,28.8,25.0,29.96,SE,141,2.0,4.0,85,0.00,,,0.00,weatherlink.com 1.10,2013-02-04 11:36:00,
2013-02-04 05:51:00,29.3,25.0,29.95,SE,141,1.0,3.0,85,0.00,,,0.00,weatherlink.com 1.10,2013-02-04 11:51:00,
2013-02-04 06:06:00,29.8,26.0,29.95,SE,141,2.0,4.0,85,0.00,,,0.00,weatherlink.com 1.10,2013-02-04 12:06:00,
2013-02-04 06:21:00,30.5,26.0,29.95,SE,141,1.0,3.0,84,0.00,,,0.00,weatherlink.com 1.10,2013-02-04 12:21:00,
2013-02-04 06:36:00,30.2,27.0,29.95,SE,141,0.0,3.0,86,0.00,,,0.00,weatherlink.com 1.10,2013-02-04 12:36:00,
2013-02-04 06:51:00,30.6,27.0,29.94,SE,141,1.0,4.0,85,0.00,,,0.00,weatherlink.com 1.10,2013-02-04 12:51:00,
2013-02-04 07:06:00,31.4,27.0,29.93,SE,141,4.0,7.0,84,0.00,,,0.00,weatherlink.com 1.10,2013-02-04 13:06:00,
2013-02-04 07:21:00,31.9,27.0,29.93,SE,141,3.0,5.0,83,0.00,,,0.00,weatherlink.com 1.10,2013-02-04 13:21:00,
2013-02-04 07:36:00,32.9,28.0,29.93,SE,141,3.0,5.0,82,0.00,,,0.00,weatherlink.com 1.10,2013-02-04 13:36:00,
2013-02-04 07:51:00,34.1,29.0,29.92,SSE,167,6.0,7.0,80,0.00,,,0.00,weatherlink.com 1.10,2013-02-04 13:51:00,
2013-02-04 08:06:00,34.8,29.0,29.92,SSE,161,4.0,7.0,79,0.00,,,0.00,weatherlink.com 1.10,2013-02-04 14:06:00,
2013-02-04 08:21:00,35.4,29.0,29.91,SSE,163,7.0,9.0,77,0.00,,,0.00,weatherlink.com 1.10,2013-02-04 14:21:00,
2013-02-04 08:36:00,35.9,29.0,29.92,South,172,2.0,9.0,77,0.00,,,0.00,weatherlink.com 1.10,2013-02-04 14:36:00,
2013-02-04 08:51:00,36.8,29.0,29.93,South,172,1.0,3.0,74,0.00,,,0.00,weatherlink.com 1.10,2013-02-04 14:51:00,
2013-02-04 09:06:00,37.5,30.0,29.92,SSE,166,3.0,9.0,74,0.00,,,0.00,weatherlink.com 1.10,2013-02-04 15:06:00,
2013-02-04 09:22:00,38.7,30.0,29.91,South,175,4.0,7.0,70,0.00,,,0.00,weatherlink.com 1.10,2013-02-04 15:22:00,
2013-02-04 09:37:00,39.6,30.0,29.91,South,190,1.0,8.0,68,0.00,,,0.00,weatherlink.com 1.10,2013-02-04 15:37:00,
2013-02-04 09:52:00,39.7,30.0,29.91,South,180,5.0,8.0,68,0.00,,,0.00,weatherlink.com 1.10,2013-02-04 15:52:00,
2013-02-04 10:07:00,40.6,30.0,29.91,South,169,5.0,11.0,66,0.00,,,0.00,weatherlink.com 1.10,2013-02-04 16:07:00,
2013-02-04 10:22:00,40.9,30.0,29.94,NW,313,2.0,12.0,66,0.01,,,0.01,weatherlink.com 1.10,2013-02-04 16:22:00,
2013-02-04 10:37:00,40.9,31.0,29.92,South,182,6.0,7.0,67,0.01,,,0.01,weatherlink.com 1.10,2013-02-04 16:37:00,
2013-02-04 10:52:00,42.1,31.0,29.90,South,190,10.0,16.0,65,0.03,,,0.03,weatherlink.com 1.10,2013-02-04 16:52:00,
2013-02-04 11:07:00,43.5,31.0,29.91,South,190,8.0,20.0,62,0.05,,,0.05,weatherlink.com 1.10,2013-02-04 17:07:00,
2013-02-04 11:22:00,43.8,32.0,29.89,SSW,201,10.0,18.0,64,0.06,,,0.07,weatherlink.com 1.10,2013-02-04 17:22:00,
2013-02-04 11:37:00,43.5,34.0,29.89,South,191,10.0,17.0,68,0.09,,,0.11,weatherlink.com 1.10,2013-02-04 17:37:00,
2013-02-04 11:52:00,43.3,34.0,29.88,SSW,202,8.0,17.0,69,0.09,,,0.12,weatherlink.com 1.10,2013-02-04 17:52:00,
2013-02-04 12:07:00,43.5,34.0,29.87,SSW,207,7.0,15.0,70,0.08,,,0.13,weatherlink.com 1.10,2013-02-04 18:07:00,
2013-02-04 12:22:00,43.7,35.0,29.86,SSW,193,4.0,17.0,71,0.06,,,0.13,weatherlink.com 1.10,2013-02-04 18:22:00,
2013-02-04 12:37:00,44.1,36.0,29.86,SSW,212,7.0,19.0,72,0.02,,,0.13,weatherlink.com 1.10,2013-02-04 18:37:00,
2013-02-04 12:52:00,44.3,36.0,29.86,SW,232,6.0,13.0,73,0.01,,,0.13,weatherlink.com 1.10,2013-02-04 18:52:00,
2013-02-04 13:07:00,44.7,37.0,29.86,SW,227,2.0,12.0,74,0.00,,,0.13,weatherlink.com 1.10,2013-02-04 19:07:00,
2013-02-04 13:22:00,45.1,38.0,29.86,SW,224,3.0,12.0,75,0.00,,,0.13,weatherlink.com 1.10,2013-02-04 19:22:00,
2013-02-04 13:37:00,45.6,38.0,29.86,SW,231,8.0,12.0,76,0.00,,,0.13,weatherlink.com 1.10,2013-02-04 19:37:00,
2013-02-04 13:52:00,45.8,39.0,29.86,South,191,4.0,10.0,76,0.00,,,0.13,weatherlink.com 1.10,2013-02-04 19:52:00,
2013-02-04 14:07:00,45.5,40.0,29.85,SW,223,3.0,15.0,80,0.00,,,0.13,weatherlink.com 1.10,2013-02-04 20:07:00,
2013-02-04 14:22:00,45.7,40.0,29.85,SW,232,3.0,12.0,80,0.00,,,0.13,weatherlink.com 1.10,2013-02-04 20:22:00,
2013-02-04 14:37:00,45.8,40.0,29.84,SSW,194,5.0,11.0,80,0.00,,,0.13,weatherlink.com 1.10,2013-02-04 20:37:00,
2013-02-04 14:52:00,46.7,41.0,29.84,SSW,198,5.0,18.0,80,0.00,,,0.13,weatherlink.com 1.10,2013-02-04 20:52:00,
2013-02-04 15:07:00,46.8,41.0,29.84,WSW,246,10.0,18.0,80,0.00,,,0.13,weatherlink.com 1.10,2013-02-04 21:07:00,
2013-02-04 15:22:00,47.7,42.0,29.83,South,188,4.0,14.0,80,0.00,,,0.13,weatherlink.com 1.10,2013-02-04 21:22:00,
2013-02-04 15:37:00,47.9,42.0,29.83,SSE,158,6.0,16.0,80,0.00,,,0.13,weatherlink.com 1.10,2013-02-04 21:37:00,
2013-02-04 15:52:00,47.9,42.0,29.83,South,186,9.0,15.0,80,0.00,,,0.13,weatherlink.com 1.10,2013-02-04 21:52:00,
2013-02-04 16:07:00,48.0,42.0,29.83,SSW,198,4.0,13.0,81,0.00,,,0.13,weatherlink.com 1.10,2013-02-04 22:07:00,
2013-02-04 16:22:00,47.8,42.0,29.83,SW,227,7.0,11.0,80,0.00,,,0.13,weatherlink.com 1.10,2013-02-04 22:22:00,
2013-02-04 16:37:00,47.2,42.0,29.83,South,174,10.0,15.0,81,0.00,,,0.13,weatherlink.com 1.10,2013-02-04 22:37:00,
2013-02-04 16:52:00,46.3,41.0,29.83,South,178,6.0,11.0,82,0.00,,,0.13,weatherlink.com 1.10,2013-02-04 22:52:00,
2013-02-04 17:07:00,45.7,41.0,29.83,South,183,3.0,8.0,83,0.00,,,0.13,weatherlink.com 1.10,2013-02-04 23:07:00,
2013-02-04 17:22:00,44.8,40.0,29.83,South,175,5.0,7.0,84,0.00,,,0.13,weatherlink.com 1.10,2013-02-04 23:22:00,
2013-02-04 17:37:00,44.4,40.0,29.84,South,186,3.0,8.0,85,0.00,,,0.13,weatherlink.com 1.10,2013-02-04 23:37:00,
2013-02-04 17:52:00,44.0,40.0,29.85,SSW,202,3.0,7.0,86,0.00,,,0.13,weatherlink.com 1.10,2013-02-04 23:52:00,
2013-02-04 18:07:00,43.3,40.0,29.85,South,180,3.0,5.0,87,0.00,,,0.13,weatherlink.com 1.10,2013-02-05 00:07:00,
2013-02-04 18:22:00,43.2,40.0,29.86,South,180,0.0,5.0,87,0.00,,,0.13,weatherlink.com 1.10,2013-02-05 00:22:00,
2013-02-04 18:37:00,43.1,40.0,29.87,SSW,200,3.0,7.0,88,0.00,,,0.13,weatherlink.com 1.10,2013-02-05 00:37:00,
2013-02-04 19:07:00,42.5,39.0,29.88,SSW,198,2.0,5.0,88,0.00,,,0.13,weatherlink.com 1.10,2013-02-05 01:07:00,
2013-02-04 19:23:00,42.0,39.0,29.88,SSW,198,4.0,5.0,89,0.00,,,0.13,weatherlink.com 1.10,2013-02-05 01:23:00,
2013-02-04 19:38:00,41.9,39.0,29.89,South,189,3.0,7.0,90,0.00,,,0.13,weatherlink.com 1.10,2013-02-05 01:38:00,
2013-02-04 19:53:00,41.7,39.0,29.89,South,190,0.0,5.0,90,0.00,,,0.13,weatherlink.com 1.10,2013-02-05 01:53:00,
2013-02-04 20:08:00,41.4,39.0,29.89,South,190,0.0,4.0,90,0.00,,,0.13,weatherlink.com 1.10,2013-02-05 02:08:00,
2013-02-04 20:23:00,41.2,39.0,29.90,South,190,0.0,3.0,91,0.00,,,0.13,weatherlink.com 1.10,2013-02-05 02:23:00,
2013-02-04 20:38:00,40.7,38.0,29.90,South,190,0.0,2.0,91,0.00,,,0.13,weatherlink.com 1.10,2013-02-05 02:38:00,
2013-02-04 20:53:00,40.6,39.0,29.90,South,190,0.0,1.0,92,0.00,,,0.13,weatherlink.com 1.10,2013-02-05 02:53:00,
2013-02-04 21:08:00,40.3,38.0,29.91,South,190,0.0,0.0,92,0.00,,,0.13,weatherlink.com 1.10,2013-02-05 03:08:00,
2013-02-04 21:23:00,40.1,38.0,29.91,North,5,5.0,10.0,90,0.00,,,0.13,weatherlink.com 1.10,2013-02-05 03:23:00,
2013-02-04 21:38:00,40.7,35.0,29.92,NNE,20,4.0,10.0,80,0.00,,,0.13,weatherlink.com 1.10,2013-02-05 03:38:00,
2013-02-04 21:53:00,40.2,35.0,29.93,North,360,3.0,8.0,80,0.00,,,0.13,weatherlink.com 1.10,2013-02-05 03:53:00,
2013-02-04 22:08:00,39.7,34.0,29.93,North,355,4.0,10.0,80,0.00,,,0.13,weatherlink.com 1.10,2013-02-05 04:08:00,
2013-02-04 22:23:00,39.1,33.0,29.94,North,350,4.0,10.0,80,0.00,,,0.13,weatherlink.com 1.10,2013-02-05 04:23:00,
2013-02-04 22:38:00,38.3,33.0,29.94,North,355,3.0,9.0,82,0.00,,,0.13,weatherlink.com 1.10,2013-02-05 04:38:00,
2013-02-04 22:53:00,37.1,32.0,29.94,North,349,4.0,6.0,83,0.00,,,0.13,weatherlink.com 1.10,2013-02-05 04:53:00,
2013-02-04 23:08:00,36.7,32.0,29.95,NNW,345,6.0,7.0,84,0.00,,,0.13,weatherlink.com 1.10,2013-02-05 05:08:00,
2013-02-04 23:23:00,36.2,32.0,29.94,North,349,3.0,7.0,85,0.00,,,0.13,weatherlink.com 1.10,2013-02-05 05:23:00,
2013-02-04 23:38:00,35.6,32.0,29.94,North,349,0.0,4.0,86,0.00,,,0.13,weatherlink.com 1.10,2013-02-05 05:38:00,
2013-02-04 23:53:00,35.3,32.0,29.95,North,349,1.0,4.0,86,0.00,,,0.13,weatherlink.com 1.10,2013-02-05 05:53:00,